createdAt,value
2016-08-06T00:00:33.730Z,22.15
2016-08-06T00:01:11.361Z,22.13
2016-08-06T00:02:31.943Z,22.13
2016-08-06T00:03:32.774Z,22.13
2016-08-06T00:04:15.140Z,22.16
2016-08-06T00:05:25.313Z,22.12
2016-08-06T00:06:26.280Z,22.13
2016-08-06T00:07:35.098Z,22.12
2016-08-06T00:08:24.372Z,22.12
2016-08-06T00:09:21.798Z,22.15
2016-08-06T00:10:29.540Z,22.12
2016-08-06T00:11:16.236Z,22.11
2016-08-06T00:12:21.844Z,22.11
2016-08-06T00:13:32.756Z,22.12
2016-08-06T00:14:27.844Z,22.12
2016-08-06T00:15:30.731Z,22.11
2016-08-06T00:16:33.558Z,22.11
2016-08-06T00:17:17.229Z,22.11
2016-08-06T00:18:35.527Z,22.11
2016-08-06T00:19:24.135Z,22.11
2016-08-06T00:20:33.860Z,22.12
2016-08-06T00:21:20.388Z,22.10
2016-08-06T00:22:33.788Z,22.11
2016-08-06T00:23:32.754Z,22.10
2016-08-06T00:24:28.759Z,22.14
2016-08-06T00:25:15.504Z,22.11
2016-08-06T00:26:34.997Z,22.11
2016-08-06T00:27:28.365Z,22.10
2016-08-06T00:28:27.210Z,22.12
2016-08-06T00:29:30.121Z,22.10
2016-08-06T00:30:34.129Z,22.10
2016-08-06T00:31:30.757Z,22.09
2016-08-06T00:32:33.758Z,22.09
2016-08-06T00:33:14.884Z,22.09
2016-08-06T00:34:36.989Z,22.10
2016-08-06T00:35:24.445Z,22.10
2016-08-06T00:36:28.295Z,22.10
2016-08-06T00:37:21.183Z,22.10
2016-08-06T00:38:39.674Z,22.09
2016-08-06T00:39:30.244Z,22.09
2016-08-06T00:40:34.039Z,22.15
2016-08-06T00:41:34.129Z,22.11
2016-08-06T00:42:17.476Z,22.09
2016-08-06T00:43:19.144Z,22.10
2016-08-06T00:44:13.294Z,22.09
2016-08-06T00:45:11.767Z,22.09
2016-08-06T00:46:12.711Z,22.09
2016-08-06T00:47:22.857Z,22.09
2016-08-06T00:48:29.058Z,22.08
2016-08-06T00:49:22.604Z,22.09
2016-08-06T00:50:27.876Z,22.08
2016-08-06T00:51:25.293Z,22.08
2016-08-06T00:52:28.415Z,22.08
2016-08-06T00:53:25.820Z,22.09
2016-08-06T00:54:23.995Z,22.09
2016-08-06T00:55:31.926Z,22.09
2016-08-06T00:56:28.956Z,22.08
2016-08-06T00:57:27.314Z,22.09
2016-08-06T00:58:20.016Z,22.08
2016-08-06T00:59:27.744Z,22.08
2016-08-06T01:00:28.689Z,22.07
2016-08-06T01:01:15.088Z,22.07
2016-08-06T01:02:36.541Z,22.08
2016-08-06T01:03:26.743Z,22.08
2016-08-06T01:04:28.350Z,22.07
2016-08-06T01:05:29.015Z,22.07
2016-08-06T01:06:34.848Z,22.07
2016-08-06T01:07:13.613Z,22.07
2016-08-06T01:08:32.294Z,22.06
2016-08-06T01:09:16.572Z,22.10
2016-08-06T01:10:26.039Z,22.07
2016-08-06T01:11:31.366Z,22.07
2016-08-06T01:12:26.986Z,22.07
2016-08-06T01:13:32.697Z,22.06
2016-08-06T01:14:18.775Z,22.06
2016-08-06T01:16:18.987Z,22.06
2016-08-06T01:17:13.750Z,22.06
2016-08-06T01:18:25.375Z,22.06
2016-08-06T01:19:15.815Z,22.06
2016-08-06T01:20:30.766Z,22.06
2016-08-06T01:21:27.946Z,22.07
2016-08-06T01:22:19.807Z,22.06
2016-08-06T01:23:13.543Z,22.06
2016-08-06T01:24:15.265Z,22.08
2016-08-06T01:25:31.089Z,22.06
2016-08-06T01:26:26.443Z,22.05
2016-08-06T01:27:29.305Z,22.05
2016-08-06T01:28:26.220Z,22.09
2016-08-06T01:29:32.843Z,22.05
2016-08-06T01:30:38.512Z,22.06
2016-08-06T01:31:23.830Z,22.08
2016-08-06T01:32:33.185Z,22.05
2016-08-06T01:33:13.128Z,22.04
2016-08-06T01:34:13.615Z,22.05
2016-08-06T01:35:28.821Z,22.04
2016-08-06T01:36:38.220Z,22.04
2016-08-06T01:37:13.721Z,22.04
2016-08-06T01:38:33.133Z,22.04
2016-08-06T01:39:33.501Z,22.03
2016-08-06T01:40:36.400Z,22.04
2016-08-06T01:41:34.532Z,22.04
2016-08-06T01:42:33.407Z,22.05
2016-08-06T01:43:26.363Z,22.04
2016-08-06T01:44:13.254Z,22.05
2016-08-06T01:45:32.063Z,22.04
2016-08-06T01:46:19.284Z,22.08
2016-08-06T01:47:31.680Z,22.04
2016-08-06T01:48:19.852Z,22.04
2016-08-06T01:49:15.063Z,22.04
2016-08-06T01:50:27.746Z,22.08
2016-08-06T01:51:27.791Z,22.03
2016-08-06T01:52:23.691Z,22.04
2016-08-06T01:53:33.191Z,22.04
2016-08-06T01:54:32.053Z,22.04
2016-08-06T01:55:31.416Z,22.03
2016-08-06T01:56:27.869Z,22.04
2016-08-06T01:57:41.778Z,22.03
2016-08-06T01:58:31.239Z,22.03
2016-08-06T01:59:32.059Z,22.02
2016-08-06T02:01:34.608Z,22.02
2016-08-06T02:02:32.335Z,22.03
2016-08-06T02:03:34.378Z,22.06
2016-08-06T02:04:14.961Z,22.02
2016-08-06T02:05:29.935Z,22.03
2016-08-06T02:06:26.080Z,22.03
2016-08-06T02:07:37.920Z,22.02
2016-08-06T02:08:31.675Z,22.02
2016-08-06T02:09:30.581Z,22.02
2016-08-06T02:10:30.580Z,22.03
2016-08-06T02:11:27.722Z,22.02
2016-08-06T02:12:28.904Z,22.03
2016-08-06T02:13:22.343Z,22.54
2016-08-06T02:14:33.179Z,22.28
2016-08-06T02:16:26.670Z,22.06
2016-08-06T02:17:32.587Z,22.04
2016-08-06T02:18:26.891Z,22.03
2016-08-06T02:19:37.227Z,22.02
2016-08-06T02:20:33.338Z,22.03
2016-08-06T02:21:33.571Z,22.02
2016-08-06T02:22:43.188Z,22.02
2016-08-06T02:23:32.450Z,22.02
2016-08-06T02:24:41.907Z,22.02
2016-08-06T02:25:30.215Z,22.02
2016-08-06T02:26:28.441Z,22.01
2016-08-06T02:27:25.207Z,22.01
2016-08-06T02:28:29.013Z,22.00
2016-08-06T02:29:21.275Z,22.01
2016-08-06T02:30:16.227Z,22.01
2016-08-06T02:31:24.465Z,22.01
2016-08-06T02:32:32.279Z,22.02
2016-08-06T02:33:27.548Z,22.01
2016-08-06T02:34:28.310Z,22.02
2016-08-06T02:35:30.907Z,22.01
2016-08-06T02:36:28.391Z,22.01
2016-08-06T02:37:20.051Z,22.02
2016-08-06T02:38:34.851Z,22.03
2016-08-06T02:39:36.721Z,22.03
2016-08-06T02:40:27.568Z,22.02
2016-08-06T02:41:22.047Z,22.03
2016-08-06T02:42:33.110Z,22.02
2016-08-06T02:43:33.195Z,22.02
2016-08-06T02:44:25.611Z,22.02
2016-08-06T02:46:13.826Z,22.02
2016-08-06T02:47:26.017Z,22.02
2016-08-06T02:48:34.209Z,22.02
2016-08-06T02:49:20.854Z,22.01
2016-08-06T02:50:22.618Z,22.00
2016-08-06T02:51:28.320Z,22.01
2016-08-06T02:52:34.773Z,21.98
2016-08-06T02:53:32.381Z,22.01
2016-08-06T02:54:38.182Z,22.00
2016-08-06T02:55:32.582Z,22.01
2016-08-06T02:56:33.800Z,22.00
2016-08-06T02:57:14.389Z,22.02
2016-08-06T02:58:33.091Z,22.00
2016-08-06T02:59:16.523Z,22.00
2016-08-06T03:00:21.508Z,22.00
2016-08-06T03:01:22.173Z,22.00
2016-08-06T03:02:32.553Z,22.00
2016-08-06T03:03:16.864Z,22.00
2016-08-06T03:04:27.109Z,22.01
2016-08-06T03:05:35.667Z,22.03
2016-08-06T03:06:19.140Z,22.55
2016-08-06T03:07:14.556Z,22.59
2016-08-06T03:08:26.864Z,22.30
2016-08-06T03:09:36.975Z,22.09
2016-08-06T03:10:32.534Z,22.05
2016-08-06T03:11:26.666Z,22.02
2016-08-06T03:12:24.630Z,22.01
2016-08-06T03:13:32.780Z,22.01
2016-08-06T03:14:26.611Z,22.00
2016-08-06T03:15:14.519Z,22.01
2016-08-06T03:16:15.062Z,22.06
2016-08-06T03:17:27.715Z,22.00
2016-08-06T03:18:28.326Z,22.00
2016-08-06T03:19:28.439Z,22.00
2016-08-06T03:20:27.680Z,21.99
2016-08-06T03:21:19.212Z,22.00
2016-08-06T03:22:16.979Z,22.00
2016-08-06T03:23:31.727Z,21.99
2016-08-06T03:24:24.822Z,21.99
2016-08-06T03:25:28.631Z,22.06
2016-08-06T03:26:26.705Z,21.99
2016-08-06T03:27:33.103Z,21.99
2016-08-06T03:28:28.424Z,21.99
2016-08-06T03:29:26.981Z,21.98
2016-08-06T03:31:28.113Z,21.98
2016-08-06T03:32:33.152Z,21.98
2016-08-06T03:33:20.846Z,21.99
2016-08-06T03:34:28.030Z,21.97
2016-08-06T03:35:22.684Z,21.98
2016-08-06T03:36:27.091Z,21.97
2016-08-06T03:37:33.041Z,22.02
2016-08-06T03:38:37.088Z,21.99
2016-08-06T03:39:31.123Z,21.98
2016-08-06T03:40:32.497Z,22.02
2016-08-06T03:41:24.389Z,21.98
2016-08-06T03:42:25.656Z,21.99
2016-08-06T03:43:33.645Z,21.98
2016-08-06T03:44:40.193Z,21.97
2016-08-06T03:45:14.730Z,21.98
2016-08-06T03:46:32.143Z,22.00
2016-08-06T03:47:26.176Z,21.98
2016-08-06T03:48:34.969Z,21.97
2016-08-06T03:49:21.246Z,21.97
2016-08-06T03:50:19.190Z,22.02
2016-08-06T03:51:23.802Z,21.98
2016-08-06T03:52:31.240Z,21.98
2016-08-06T03:53:25.810Z,21.98
2016-08-06T03:54:20.882Z,21.98
2016-08-06T03:55:30.797Z,21.98
2016-08-06T03:56:28.396Z,21.97
2016-08-06T03:57:32.455Z,22.00
2016-08-06T03:58:21.087Z,21.97
2016-08-06T03:59:30.523Z,22.03
2016-08-06T04:00:41.199Z,21.97
2016-08-06T04:01:32.082Z,22.00
2016-08-06T04:02:24.509Z,21.97
2016-08-06T04:03:33.676Z,21.97
2016-08-06T04:04:32.711Z,21.97
2016-08-06T04:05:19.770Z,21.97
2016-08-06T04:06:33.989Z,21.95
2016-08-06T04:07:31.124Z,21.96
2016-08-06T04:08:25.635Z,21.96
2016-08-06T04:09:25.949Z,22.50
2016-08-06T04:10:30.072Z,22.03
2016-08-06T04:11:32.634Z,21.99
2016-08-06T04:12:26.502Z,21.98
2016-08-06T04:13:27.571Z,21.98
2016-08-06T04:14:28.423Z,21.98
2016-08-06T04:15:30.862Z,21.97
2016-08-06T04:16:20.414Z,21.97
2016-08-06T04:17:14.448Z,21.97
2016-08-06T04:18:38.306Z,21.96
2016-08-06T04:19:26.949Z,21.96
2016-08-06T04:20:18.505Z,21.97
2016-08-06T04:21:21.505Z,21.96
2016-08-06T04:22:19.545Z,22.01
2016-08-06T04:23:21.456Z,21.96
2016-08-06T04:24:27.401Z,21.96
2016-08-06T04:25:29.631Z,22.01
2016-08-06T04:26:12.191Z,21.96
2016-08-06T04:27:31.291Z,21.96
2016-08-06T04:28:34.436Z,21.97
2016-08-06T04:29:28.543Z,21.97
2016-08-06T04:30:17.886Z,21.96
2016-08-06T04:31:26.330Z,21.96
2016-08-06T04:32:26.781Z,21.96
2016-08-06T04:33:34.619Z,21.95
2016-08-06T04:34:26.972Z,21.95
2016-08-06T04:35:32.634Z,21.95
2016-08-06T04:36:27.698Z,21.95
2016-08-06T04:37:44.490Z,21.96
2016-08-06T04:38:26.945Z,21.95
2016-08-06T04:39:31.322Z,21.96
2016-08-06T04:40:20.969Z,21.95
2016-08-06T04:41:14.580Z,21.95
2016-08-06T04:42:16.006Z,21.93
2016-08-06T04:43:40.853Z,21.94
2016-08-06T04:44:21.627Z,21.95
2016-08-06T04:45:32.841Z,21.96
2016-08-06T04:46:23.156Z,21.96
2016-08-06T04:47:27.519Z,21.95
2016-08-06T04:48:32.543Z,21.96
2016-08-06T04:49:13.446Z,21.96
2016-08-06T04:50:27.520Z,21.95
2016-08-06T04:51:28.416Z,22.18
2016-08-06T04:52:33.884Z,22.01
2016-08-06T04:53:44.427Z,21.98
2016-08-06T04:54:30.897Z,21.96
2016-08-06T04:55:32.312Z,21.96
2016-08-06T04:56:30.386Z,21.96
2016-08-06T04:57:13.062Z,21.98
2016-08-06T04:58:25.567Z,21.94
2016-08-06T04:59:21.641Z,21.95
2016-08-06T05:00:29.085Z,21.96
2016-08-06T05:01:28.399Z,21.95
2016-08-06T05:02:27.720Z,22.02
2016-08-06T05:03:38.323Z,21.98
2016-08-06T05:04:27.855Z,21.95
2016-08-06T05:05:33.243Z,21.96
2016-08-06T05:06:34.127Z,21.96
2016-08-06T05:07:25.826Z,21.95
2016-08-06T05:08:27.756Z,21.95
2016-08-06T05:09:34.818Z,21.95
2016-08-06T05:10:32.792Z,21.96
2016-08-06T05:11:28.861Z,21.95
2016-08-06T05:12:23.839Z,21.95
2016-08-06T05:13:30.139Z,21.96
2016-08-06T05:14:23.473Z,21.95
2016-08-06T05:15:13.027Z,22.04
2016-08-06T05:16:25.598Z,22.49
2016-08-06T05:17:21.263Z,22.54
2016-08-06T05:18:13.210Z,22.57
2016-08-06T05:19:26.980Z,22.25
2016-08-06T05:20:27.061Z,22.12
2016-08-06T05:21:28.140Z,22.01
2016-08-06T05:22:29.966Z,21.98
2016-08-06T05:23:21.264Z,22.00
2016-08-06T05:24:37.475Z,21.97
2016-08-06T05:25:20.038Z,21.96
2016-08-06T05:26:33.699Z,21.97
2016-08-06T05:27:18.573Z,21.96
2016-08-06T05:28:24.821Z,21.97
2016-08-06T05:29:32.167Z,21.97
2016-08-06T05:30:25.076Z,21.97
2016-08-06T05:32:39.099Z,21.97
2016-08-06T05:33:19.631Z,21.96
2016-08-06T05:34:20.221Z,21.97
2016-08-06T05:35:17.053Z,21.97
2016-08-06T05:36:31.952Z,21.97
2016-08-06T05:37:33.840Z,21.97
2016-08-06T05:38:25.995Z,21.97
2016-08-06T05:39:27.203Z,21.97
2016-08-06T05:40:27.400Z,21.97
2016-08-06T05:41:37.195Z,21.97
2016-08-06T05:42:33.841Z,21.98
2016-08-06T05:43:24.452Z,21.97
2016-08-06T05:44:15.804Z,21.98
2016-08-06T05:45:34.182Z,21.97
2016-08-06T05:46:14.999Z,21.98
2016-08-06T05:47:28.462Z,21.98
2016-08-06T05:48:35.575Z,21.98
2016-08-06T05:49:14.498Z,21.98
2016-08-06T05:50:22.653Z,22.02
2016-08-06T05:51:35.428Z,22.00
2016-08-06T05:52:33.826Z,21.99
2016-08-06T05:53:27.928Z,22.00
2016-08-06T05:54:24.920Z,22.05
2016-08-06T05:55:28.824Z,22.01
2016-08-06T05:56:23.276Z,22.00
2016-08-06T05:57:33.414Z,22.00
2016-08-06T05:58:32.662Z,21.99
2016-08-06T05:59:33.584Z,22.00
2016-08-06T06:00:33.293Z,22.01
2016-08-06T06:02:37.211Z,22.01
2016-08-06T06:03:12.952Z,22.01
2016-08-06T06:04:14.377Z,22.01
2016-08-06T06:05:20.428Z,22.01
2016-08-06T06:06:28.078Z,22.01
2016-08-06T06:07:13.344Z,22.01
2016-08-06T06:08:16.678Z,22.00
2016-08-06T06:09:26.455Z,22.04
2016-08-06T06:10:27.232Z,22.01
2016-08-06T06:11:12.545Z,22.02
2016-08-06T06:12:28.129Z,22.03
2016-08-06T06:13:37.939Z,22.01
2016-08-06T06:14:22.310Z,22.02
2016-08-06T06:15:21.429Z,22.02
2016-08-06T06:17:33.430Z,22.02
2016-08-06T06:18:27.343Z,22.02
2016-08-06T06:19:33.050Z,22.02
2016-08-06T06:20:26.032Z,22.02
2016-08-06T06:21:25.814Z,22.02
2016-08-06T06:22:13.754Z,22.02
2016-08-06T06:23:20.527Z,22.01
2016-08-06T06:24:31.941Z,22.08
2016-08-06T06:25:31.294Z,22.02
2016-08-06T06:26:36.728Z,22.01
2016-08-06T06:27:27.124Z,22.02
2016-08-06T06:28:33.058Z,22.01
2016-08-06T06:29:14.395Z,22.02
2016-08-06T06:30:37.606Z,22.01
2016-08-06T06:31:28.237Z,22.01
2016-08-06T06:32:28.519Z,22.03
2016-08-06T06:33:25.640Z,22.02
2016-08-06T06:34:30.041Z,22.04
2016-08-06T06:35:38.320Z,22.02
2016-08-06T06:36:12.256Z,22.03
2016-08-06T06:37:32.848Z,22.02
2016-08-06T06:38:14.020Z,22.08
2016-08-06T06:39:33.147Z,22.03
2016-08-06T06:40:32.654Z,22.03
2016-08-06T06:41:20.406Z,22.03
2016-08-06T06:42:28.867Z,22.03
2016-08-06T06:43:28.305Z,22.03
2016-08-06T06:44:28.633Z,22.03
2016-08-06T06:45:27.518Z,22.04
2016-08-06T06:46:30.557Z,22.04
2016-08-06T06:47:19.047Z,22.04
2016-08-06T06:48:15.609Z,22.05
2016-08-06T06:49:26.617Z,22.05
2016-08-06T06:50:27.110Z,22.05
2016-08-06T06:51:28.209Z,22.05
2016-08-06T06:52:38.516Z,22.07
2016-08-06T06:53:19.998Z,22.07
2016-08-06T06:54:13.162Z,22.06
2016-08-06T06:55:14.004Z,22.07
2016-08-06T06:56:30.125Z,22.07
2016-08-06T06:57:23.887Z,22.07
2016-08-06T06:58:15.094Z,22.08
2016-08-06T06:59:26.999Z,22.08
2016-08-06T07:00:23.837Z,22.08
2016-08-06T07:01:23.386Z,22.08
2016-08-06T07:02:24.886Z,22.09
2016-08-06T07:03:23.708Z,22.08
2016-08-06T07:04:26.612Z,22.08
2016-08-06T07:05:26.549Z,22.08
2016-08-06T07:06:21.071Z,22.08
2016-08-06T07:07:22.588Z,22.08
2016-08-06T07:08:28.508Z,22.07
2016-08-06T07:09:27.869Z,22.09
2016-08-06T07:10:25.946Z,22.08
2016-08-06T07:11:25.930Z,22.08
2016-08-06T07:12:19.898Z,22.09
2016-08-06T07:13:24.368Z,22.08
2016-08-06T07:14:12.177Z,22.10
2016-08-06T07:15:28.922Z,22.10
2016-08-06T07:16:22.022Z,22.10
2016-08-06T07:17:13.979Z,22.10
2016-08-06T07:18:10.499Z,22.09
2016-08-06T07:19:20.698Z,22.10
2016-08-06T07:20:25.985Z,22.11
2016-08-06T07:21:26.692Z,22.10
2016-08-06T07:22:15.995Z,22.10
2016-08-06T07:23:26.409Z,22.11
2016-08-06T07:24:22.255Z,22.12
2016-08-06T07:25:28.012Z,22.11
2016-08-06T07:26:20.365Z,22.10
2016-08-06T07:27:26.878Z,22.10
2016-08-06T07:28:25.931Z,22.10
2016-08-06T07:29:27.014Z,22.09
2016-08-06T07:30:28.036Z,22.09
2016-08-06T07:31:26.885Z,22.09
2016-08-06T07:32:23.021Z,22.10
2016-08-06T07:33:22.225Z,22.10
2016-08-06T07:34:30.708Z,22.12
2016-08-06T07:35:23.086Z,22.12
2016-08-06T07:36:20.876Z,22.13
2016-08-06T07:37:19.363Z,22.20
2016-08-06T07:38:23.508Z,22.13
2016-08-06T07:39:23.158Z,22.14
2016-08-06T07:40:21.945Z,22.15
2016-08-06T07:41:25.991Z,22.15
2016-08-06T07:42:32.622Z,22.16
2016-08-06T07:43:44.220Z,22.16
2016-08-06T07:44:36.046Z,22.17
2016-08-06T07:45:13.090Z,22.18
2016-08-06T07:46:28.491Z,22.19
2016-08-06T07:47:15.078Z,22.19
2016-08-06T07:48:13.857Z,22.19
2016-08-06T07:49:28.031Z,22.19
2016-08-06T07:50:20.062Z,22.21
2016-08-06T07:51:26.487Z,22.22
2016-08-06T07:52:26.322Z,22.23
2016-08-06T07:53:27.050Z,22.24
2016-08-06T07:54:13.647Z,22.25
2016-08-06T07:55:12.556Z,22.28
2016-08-06T07:56:31.849Z,22.27
2016-08-06T07:57:26.016Z,22.34
2016-08-06T07:58:31.192Z,22.30
2016-08-06T07:59:32.130Z,22.32
2016-08-06T08:00:30.598Z,22.32
2016-08-06T08:01:26.731Z,22.33
2016-08-06T08:02:22.478Z,22.34
2016-08-06T08:03:12.657Z,22.35
2016-08-06T08:04:26.406Z,22.37
2016-08-06T08:05:27.252Z,22.37
2016-08-06T08:06:33.442Z,22.37
2016-08-06T08:07:13.000Z,22.41
2016-08-06T08:08:40.730Z,22.37
2016-08-06T08:09:23.524Z,22.38
2016-08-06T08:10:21.183Z,22.38
2016-08-06T08:11:32.432Z,22.34
2016-08-06T08:12:25.949Z,22.21
2016-08-06T08:13:27.401Z,22.05
2016-08-06T08:14:23.658Z,21.80
2016-08-06T08:15:26.574Z,21.63
2016-08-06T08:16:28.740Z,21.63
2016-08-06T08:17:35.071Z,21.44
2016-08-06T08:18:22.876Z,21.34
2016-08-06T08:19:27.969Z,21.33
2016-08-06T08:20:34.301Z,21.31
2016-08-06T08:21:22.952Z,21.29
2016-08-06T08:22:22.585Z,21.19
2016-08-06T08:23:26.760Z,21.19
2016-08-06T08:24:20.460Z,21.22
2016-08-06T08:25:20.579Z,21.25
2016-08-06T08:26:17.816Z,21.29
2016-08-06T08:27:28.659Z,21.30
2016-08-06T08:28:19.005Z,21.25
2016-08-06T08:29:33.661Z,21.18
2016-08-06T08:30:35.477Z,21.19
2016-08-06T08:31:30.095Z,21.09
2016-08-06T08:32:27.724Z,21.11
2016-08-06T08:33:32.484Z,21.00
2016-08-06T08:34:38.273Z,20.96
2016-08-06T08:35:30.536Z,20.96
2016-08-06T08:36:34.429Z,20.87
2016-08-06T08:37:33.630Z,20.86
2016-08-06T08:38:31.813Z,20.87
2016-08-06T08:39:34.330Z,20.87
2016-08-06T08:40:28.397Z,20.88
2016-08-06T08:41:31.098Z,20.87
2016-08-06T08:42:36.375Z,20.87
2016-08-06T08:43:16.023Z,20.88
2016-08-06T08:44:30.764Z,20.85
2016-08-06T08:45:28.085Z,20.84
2016-08-06T08:46:33.848Z,20.89
2016-08-06T08:47:31.831Z,20.96
2016-08-06T08:48:32.470Z,21.00
2016-08-06T08:49:27.311Z,21.01
2016-08-06T08:50:31.051Z,20.92
2016-08-06T08:51:35.835Z,20.90
2016-08-06T08:52:29.057Z,20.85
2016-08-06T08:53:22.801Z,20.85
2016-08-06T08:54:22.618Z,20.86
2016-08-06T08:55:44.579Z,20.85
2016-08-06T08:56:27.996Z,20.81
2016-08-06T08:57:35.236Z,20.79
2016-08-06T08:58:33.360Z,20.78
2016-08-06T08:59:33.855Z,20.78
2016-08-06T09:00:20.325Z,20.75
2016-08-06T09:01:28.877Z,20.76
2016-08-06T09:02:37.256Z,20.77
2016-08-06T09:03:22.718Z,20.78
2016-08-06T09:04:32.389Z,20.80
2016-08-06T09:05:33.066Z,20.81
2016-08-06T09:06:23.835Z,20.83
2016-08-06T09:07:34.003Z,20.83
2016-08-06T09:08:27.374Z,20.79
2016-08-06T09:09:35.493Z,20.76
2016-08-06T09:10:17.953Z,20.78
2016-08-06T09:11:27.014Z,20.76
2016-08-06T09:12:21.887Z,20.74
2016-08-06T09:13:26.828Z,20.75
2016-08-06T09:14:28.289Z,20.78
2016-08-06T09:15:33.653Z,20.69
2016-08-06T09:16:25.604Z,20.69
2016-08-06T09:18:28.128Z,20.65
2016-08-06T09:19:27.331Z,20.64
2016-08-06T09:20:27.530Z,20.58
2016-08-06T09:21:27.655Z,20.57
2016-08-06T09:22:27.191Z,20.70
2016-08-06T09:23:26.856Z,20.83
2016-08-06T09:24:21.139Z,20.94
2016-08-06T09:25:21.958Z,21.03
2016-08-06T09:26:25.566Z,21.09
2016-08-06T09:27:26.547Z,21.16
2016-08-06T09:28:29.869Z,21.22
2016-08-06T09:29:38.905Z,21.26
2016-08-06T09:30:27.692Z,21.30
2016-08-06T09:31:33.475Z,21.33
2016-08-06T09:32:20.681Z,21.36
2016-08-06T09:33:17.530Z,21.39
2016-08-06T09:34:16.473Z,21.41
2016-08-06T09:35:27.627Z,21.44
2016-08-06T09:36:23.147Z,21.46
2016-08-06T09:37:32.787Z,21.48
2016-08-06T09:38:27.304Z,21.49
2016-08-06T09:39:28.797Z,21.51
2016-08-06T09:40:21.898Z,21.52
2016-08-06T09:41:17.994Z,21.56
2016-08-06T09:42:21.061Z,21.57
2016-08-06T09:43:26.864Z,21.59
2016-08-06T09:44:31.636Z,21.61
2016-08-06T09:45:26.130Z,21.62
2016-08-06T09:46:22.533Z,21.62
2016-08-06T09:47:33.452Z,21.69
2016-08-06T09:48:25.687Z,21.65
2016-08-06T09:49:27.934Z,21.68
2016-08-06T09:50:22.348Z,21.67
2016-08-06T09:51:25.179Z,21.68
2016-08-06T09:52:26.984Z,21.70
2016-08-06T09:53:27.805Z,21.71
2016-08-06T09:54:27.517Z,21.72
2016-08-06T09:55:20.525Z,21.73
2016-08-06T09:56:31.985Z,21.74
2016-08-06T09:57:25.815Z,21.75
2016-08-06T09:58:16.864Z,21.76
2016-08-06T09:59:14.471Z,21.77
2016-08-06T10:00:32.022Z,21.78
2016-08-06T10:01:25.549Z,21.79
2016-08-06T10:02:21.608Z,21.79
2016-08-06T10:03:31.104Z,21.80
2016-08-06T10:04:27.295Z,21.79
2016-08-06T10:05:14.769Z,21.80
2016-08-06T10:06:24.690Z,21.80
2016-08-06T10:07:21.361Z,21.80
2016-08-06T10:08:21.214Z,21.80
2016-08-06T10:09:25.895Z,21.82
2016-08-06T10:10:29.494Z,21.81
2016-08-06T10:11:26.948Z,21.83
2016-08-06T10:12:22.510Z,21.83
2016-08-06T10:13:27.103Z,21.85
2016-08-06T10:14:11.994Z,21.86
2016-08-06T10:15:32.928Z,21.87
2016-08-06T10:16:34.521Z,21.87
2016-08-06T10:17:20.157Z,21.87
2016-08-06T10:18:16.191Z,21.89
2016-08-06T10:19:25.576Z,21.89
2016-08-06T10:20:19.487Z,21.89
2016-08-06T10:21:18.492Z,21.92
2016-08-06T10:22:20.990Z,21.89
2016-08-06T10:23:23.283Z,21.89
2016-08-06T10:24:22.423Z,21.90
2016-08-06T10:25:30.559Z,21.93
2016-08-06T10:26:17.231Z,21.90
2016-08-06T10:27:24.771Z,21.90
2016-08-06T10:28:27.985Z,21.91
2016-08-06T10:29:28.911Z,22.45
2016-08-06T10:30:21.727Z,22.51
2016-08-06T10:31:32.416Z,22.55
2016-08-06T10:32:17.759Z,22.57
2016-08-06T10:33:12.808Z,22.57
2016-08-06T10:34:14.545Z,22.58
2016-08-06T10:35:15.366Z,22.60
2016-08-06T10:36:14.526Z,22.24
2016-08-06T10:37:31.712Z,22.09
2016-08-06T10:38:28.093Z,22.04
2016-08-06T10:39:13.734Z,22.02
2016-08-06T10:40:15.564Z,22.01
2016-08-06T10:41:28.960Z,22.01
2016-08-06T10:42:27.295Z,22.00
2016-08-06T10:43:20.777Z,22.00
2016-08-06T10:44:19.922Z,22.01
2016-08-06T10:45:25.651Z,22.01
2016-08-06T10:46:21.408Z,22.01
2016-08-06T10:47:20.361Z,21.99
2016-08-06T10:48:21.980Z,21.99
2016-08-06T10:49:26.514Z,21.98
2016-08-06T10:50:18.897Z,22.00
2016-08-06T10:51:26.644Z,21.99
2016-08-06T10:52:10.975Z,21.98
2016-08-06T10:53:22.056Z,21.99
2016-08-06T10:54:14.031Z,21.99
2016-08-06T10:55:27.875Z,21.98
2016-08-06T10:56:32.640Z,21.99
2016-08-06T10:57:29.334Z,21.98
2016-08-06T10:58:20.912Z,21.98
2016-08-06T10:59:29.325Z,21.97
2016-08-06T11:00:27.360Z,21.95
2016-08-06T11:01:16.251Z,21.94
2016-08-06T11:02:12.535Z,21.95
2016-08-06T11:03:22.366Z,21.96
2016-08-06T11:04:20.724Z,21.96
2016-08-06T11:05:21.064Z,21.96
2016-08-06T11:06:26.563Z,21.95
2016-08-06T11:07:23.096Z,21.96
2016-08-06T11:08:15.225Z,21.99
2016-08-06T11:09:19.603Z,22.50
2016-08-06T11:10:26.305Z,22.56
2016-08-06T11:11:18.089Z,22.58
2016-08-06T11:12:13.724Z,22.22
2016-08-06T11:13:25.413Z,22.05
2016-08-06T11:14:23.183Z,22.02
2016-08-06T11:15:22.917Z,21.98
2016-08-06T11:16:22.951Z,21.96
2016-08-06T11:17:21.267Z,21.96
2016-08-06T11:18:22.839Z,21.95
2016-08-06T11:19:31.400Z,21.95
2016-08-06T11:20:27.829Z,21.95
2016-08-06T11:21:27.286Z,21.94
2016-08-06T11:22:19.172Z,21.95
2016-08-06T11:23:20.521Z,21.95
2016-08-06T11:24:16.156Z,21.95
2016-08-06T11:25:15.472Z,21.98
2016-08-06T11:26:13.794Z,21.95
2016-08-06T11:27:21.836Z,21.95
2016-08-06T11:28:18.979Z,21.94
2016-08-06T11:29:25.984Z,21.95
2016-08-06T11:30:28.117Z,21.96
2016-08-06T11:31:28.981Z,21.96
2016-08-06T11:32:25.352Z,21.96
2016-08-06T11:33:27.115Z,21.96
2016-08-06T11:34:27.560Z,21.96
2016-08-06T11:35:23.969Z,21.97
2016-08-06T11:36:20.024Z,21.97
2016-08-06T11:37:20.467Z,21.97
2016-08-06T11:38:11.711Z,21.97
2016-08-06T11:39:21.690Z,21.97
2016-08-06T11:40:28.469Z,21.98
2016-08-06T11:41:23.018Z,21.98
2016-08-06T11:42:18.977Z,21.98
2016-08-06T11:43:22.706Z,22.01
2016-08-06T11:44:20.468Z,21.99
2016-08-06T11:45:14.144Z,21.99
2016-08-06T11:46:33.217Z,21.98
2016-08-06T11:47:26.086Z,22.00
2016-08-06T11:48:16.746Z,22.00
2016-08-06T11:49:13.425Z,22.01
2016-08-06T11:50:20.813Z,22.00
2016-08-06T11:51:15.046Z,22.01
2016-08-06T11:52:22.241Z,22.01
2016-08-06T11:53:25.245Z,22.01
2016-08-06T11:54:19.735Z,22.02
2016-08-06T11:55:19.673Z,22.01
2016-08-06T11:56:20.780Z,22.02
2016-08-06T11:57:32.350Z,22.02
2016-08-06T11:58:25.328Z,22.02
2016-08-06T11:59:27.262Z,22.03
2016-08-06T12:00:21.959Z,22.02
2016-08-06T12:01:21.768Z,22.10
2016-08-06T12:02:21.787Z,22.03
2016-08-06T12:03:15.795Z,22.02
2016-08-06T12:04:16.798Z,22.03
2016-08-06T12:05:33.241Z,22.03
2016-08-06T12:06:12.819Z,22.04
2016-08-06T12:07:22.280Z,22.10
2016-08-06T12:08:27.197Z,22.04
2016-08-06T12:09:26.972Z,22.08
2016-08-06T12:10:32.845Z,22.03
2016-08-06T12:11:22.141Z,22.04
2016-08-06T12:12:22.342Z,22.06
2016-08-06T12:13:22.029Z,22.04
2016-08-06T12:14:20.375Z,22.04
2016-08-06T12:15:21.815Z,22.05
2016-08-06T12:16:28.159Z,22.05
2016-08-06T12:17:33.966Z,22.05
2016-08-06T12:18:22.785Z,22.04
2016-08-06T12:19:24.019Z,22.04
2016-08-06T12:20:32.772Z,22.05
2016-08-06T12:21:20.913Z,22.04
2016-08-06T12:22:28.814Z,22.04
2016-08-06T12:23:20.957Z,22.04
2016-08-06T12:24:28.770Z,22.03
2016-08-06T12:25:23.893Z,22.03
2016-08-06T12:26:21.062Z,22.03
2016-08-06T12:27:38.119Z,22.04
2016-08-06T12:28:16.267Z,22.04
2016-08-06T12:29:23.020Z,22.03
2016-08-06T12:30:32.802Z,22.03
2016-08-06T12:31:12.038Z,22.04
2016-08-06T12:32:27.304Z,22.04
2016-08-06T12:33:27.551Z,22.03
2016-08-06T12:34:41.521Z,22.03
2016-08-06T12:35:24.419Z,22.03
2016-08-06T12:36:33.115Z,22.02
2016-08-06T12:37:21.560Z,22.03
2016-08-06T12:38:16.230Z,22.03
2016-08-06T12:39:27.697Z,22.03
2016-08-06T12:40:15.431Z,22.11
2016-08-06T12:41:19.651Z,22.57
2016-08-06T12:42:18.713Z,22.62
2016-08-06T12:43:22.265Z,22.64
2016-08-06T12:44:14.506Z,22.66
2016-08-06T12:45:13.574Z,22.67
2016-08-06T12:46:22.371Z,22.68
2016-08-06T12:47:21.120Z,22.68
2016-08-06T12:48:23.229Z,22.68
2016-08-06T12:49:14.672Z,22.15
2016-08-06T12:50:16.043Z,22.09
2016-08-06T12:51:22.492Z,22.60
2016-08-06T12:52:28.186Z,22.65
2016-08-06T12:53:21.583Z,22.67
2016-08-06T12:54:22.921Z,22.68
2016-08-06T12:55:22.069Z,22.37
2016-08-06T12:56:19.822Z,22.18
2016-08-06T12:57:21.351Z,22.10
2016-08-06T12:58:15.395Z,22.06
2016-08-06T12:59:26.231Z,22.06
2016-08-06T13:00:12.361Z,22.05
2016-08-06T13:01:14.473Z,22.05